Gasquet, California
Current Conditions -  °F | °C
As of 5:56 AM on Friday 24 Oct 2014 (Local Time) from KCEC Reporting Station
Light Rain Light Rain  
Wind Chill: 13°   Ceiling: 7500
Heat Index: 13°   Visibility: 10mi
Dew Point: 12°   Wind: 3mph
Humidity: 96%   Direction: 110°ESE
Pressure: 29.93"   Gusts: NA
Location:  41.85°N, 123.97°W
Report Text: KCEC 241256Z AUTO 11003KT 10SM -RA BKN075 OVC095 13/12 A2993 RMK AO2 SLP135 P0004 T01280122
Loading
Personal Weather Stations






























Interactive Weather Map
Tropical Storm Tracking
New forecast layout! Learn more

10-Day Weather Forecast

Advertisements
Track Severe Weather on mobile